createdAt,value
2018-11-28T00:00:18.924Z,25.70
2018-11-28T00:07:22.920Z,25.33
2018-11-28T00:14:26.947Z,24.87
2018-11-28T00:21:30.993Z,26.70
2018-11-28T00:28:35.071Z,25.90
2018-11-28T00:35:39.116Z,25.43
2018-11-28T00:42:43.609Z,23.87
2018-11-28T00:49:47.622Z,27.60
2018-11-28T00:56:51.630Z,24.70
2018-11-28T01:03:55.679Z,26.63
2018-11-28T01:10:59.746Z,25.07
2018-11-28T01:18:03.743Z,27.97
2018-11-28T01:25:11.058Z,26.77
2018-11-28T01:32:15.118Z,27.00
2018-11-28T01:39:19.161Z,25.93
2018-11-28T01:46:23.190Z,25.73
2018-11-28T01:53:27.242Z,25.27
2018-11-28T02:00:31.271Z,24.90
2018-11-28T02:07:35.305Z,25.67
2018-11-28T02:14:39.334Z,27.93
2018-11-28T02:21:43.370Z,27.33
2018-11-28T02:28:47.421Z,27.13
2018-11-28T02:35:51.462Z,27.53
2018-11-28T02:42:55.466Z,26.83
2018-11-28T02:49:59.469Z,26.43
2018-11-28T02:57:03.530Z,27.40
2018-11-28T03:04:07.954Z,25.00
2018-11-28T03:11:12.043Z,24.37
2018-11-28T03:18:16.049Z,26.67
2018-11-28T03:25:20.464Z,27.03
2018-11-28T03:32:24.552Z,26.73
2018-11-28T03:39:28.576Z,26.70
2018-11-28T03:46:32.662Z,28.97
2018-11-28T03:53:37.060Z,28.13
2018-11-28T04:00:41.100Z,26.70
2018-11-28T04:07:45.497Z,27.60
2018-11-28T04:14:49.739Z,28.83
2018-11-28T04:21:53.721Z,28.27
2018-11-28T04:28:57.786Z,29.80
2018-11-28T04:36:01.834Z,28.40
2018-11-28T04:43:06.643Z,29.10
2018-11-28T04:50:11.502Z,28.87
2018-11-28T04:57:15.535Z,28.97
2018-11-28T05:04:19.559Z,28.73
2018-11-28T05:11:23.605Z,28.20
2018-11-28T05:18:27.629Z,29.97
2018-11-28T05:25:32.859Z,29.47
2018-11-28T05:32:36.880Z,29.60
2018-11-28T05:39:40.913Z,29.70
2018-11-28T05:46:44.937Z,29.37
2018-11-28T05:53:48.976Z,30.10
2018-11-28T06:00:53.013Z,29.03
2018-11-28T06:07:57.034Z,32.50
2018-11-28T06:15:01.305Z,30.60
2018-11-28T06:22:06.108Z,30.67
2018-11-28T06:29:10.168Z,31.67
2018-11-28T06:36:14.190Z,30.43
2018-11-28T06:43:18.229Z,31.10
2018-11-28T06:50:22.302Z,30.03
2018-11-28T06:57:26.359Z,31.27
2018-11-28T07:04:30.358Z,32.73
2018-11-28T07:11:34.416Z,32.13
2018-11-28T07:18:49.777Z,34.50
2018-11-28T07:25:53.818Z,32.43
2018-11-28T07:32:58.138Z,34.10
2018-11-28T07:40:02.172Z,35.30
2018-11-28T07:47:06.798Z,34.03
2018-11-28T07:54:10.866Z,32.67
2018-11-28T08:01:14.913Z,33.17
2018-11-28T08:08:18.932Z,33.77
2018-11-28T08:15:23.030Z,33.80
2018-11-28T08:22:27.383Z,31.77
2018-11-28T08:29:31.119Z,33.47
2018-11-28T08:36:35.229Z,32.37
2018-11-28T08:43:40.038Z,31.23
2018-11-28T08:50:44.359Z,29.90
2018-11-28T08:57:48.394Z,31.13
2018-11-28T09:04:52.440Z,32.20
2018-11-28T09:11:57.075Z,31.03
2018-11-28T09:19:01.149Z,31.23
2018-11-28T09:26:05.684Z,30.63
2018-11-28T09:33:10.059Z,29.80
2018-11-28T09:40:21.153Z,29.47
2018-11-28T09:47:25.155Z,29.83
2018-11-28T09:54:47.711Z,27.87
2018-11-28T10:01:55.083Z,28.67
2018-11-28T10:08:59.143Z,27.60
2018-11-28T10:16:03.181Z,28.77
2018-11-28T10:23:07.273Z,35.73
2018-11-28T10:30:20.764Z,27.97
2018-11-28T10:37:24.971Z,25.73
2018-11-28T10:44:33.066Z,26.07
2018-11-28T10:51:37.163Z,26.63
2018-11-28T10:58:41.189Z,27.97
2018-11-28T11:05:50.993Z,26.87
2018-11-28T11:13:00.463Z,25.80
2018-11-28T11:20:04.871Z,27.57
2018-11-28T11:27:09.070Z,25.77
2018-11-28T11:34:14.713Z,24.73
2018-11-28T11:41:18.081Z,25.80
2018-11-28T11:48:22.109Z,23.53
2018-11-28T11:55:30.319Z,24.83
2018-11-28T12:02:34.468Z,22.03
2018-11-28T12:09:38.559Z,24.10
2018-11-28T12:16:42.630Z,23.60
2018-11-28T12:23:46.770Z,23.70
2018-11-28T12:30:57.482Z,23.23
2018-11-28T12:38:02.213Z,24.57
2018-11-28T12:45:12.798Z,23.27
2018-11-28T12:47:00.558Z,12.50
2018-11-28T12:48:04.845Z,22.93
2018-11-28T12:49:09.267Z,24.95
2018-11-28T12:50:18.006Z,25.62
2018-11-28T12:51:22.314Z,24.92
2018-11-28T12:52:26.580Z,26.37
2018-11-28T12:53:30.931Z,27.70
2018-11-28T12:54:35.216Z,26.15
2018-11-28T12:55:40.066Z,26.55
2018-11-28T12:56:44.667Z,27.48
2018-11-28T12:57:49.440Z,26.05
2018-11-28T12:58:53.715Z,25.82
2018-11-28T12:59:57.971Z,26.55
2018-11-28T13:01:02.229Z,26.07
2018-11-28T13:02:06.926Z,26.50
2018-11-28T13:03:12.606Z,27.10
2018-11-28T13:04:16.982Z,27.70
2018-11-28T13:05:23.752Z,26.42
2018-11-28T13:06:28.142Z,26.80
2018-11-28T13:07:32.392Z,25.57
2018-11-28T13:08:38.760Z,26.37
2018-11-28T13:09:43.046Z,26.40
2018-11-28T13:10:47.363Z,26.52
2018-11-28T13:11:51.648Z,26.70
2018-11-28T13:12:56.023Z,25.77
2018-11-28T13:14:00.297Z,25.68
2018-11-28T13:15:04.651Z,25.82
2018-11-28T13:16:08.950Z,24.98
2018-11-28T13:17:13.289Z,24.98
2018-11-28T13:18:17.829Z,25.90
2018-11-28T13:19:22.088Z,25.90
2018-11-28T13:20:26.448Z,25.45
2018-11-28T13:21:30.729Z,26.57
2018-11-28T13:22:35.456Z,24.40
2018-11-28T13:23:39.852Z,26.68
2018-11-28T13:24:44.144Z,24.65
2018-11-28T13:25:48.510Z,23.12
2018-11-28T13:26:52.823Z,24.80
2018-11-28T13:27:57.148Z,24.77
2018-11-28T13:29:01.424Z,26.73
2018-11-28T13:30:11.188Z,25.12
2018-11-28T13:31:15.527Z,24.57
2018-11-28T13:32:19.826Z,25.50
2018-11-28T13:33:24.415Z,25.88
2018-11-28T13:34:28.666Z,24.98
2018-11-28T13:35:32.924Z,26.12
2018-11-28T13:36:37.296Z,24.55
2018-11-28T13:37:42.242Z,30.55
2018-11-28T13:38:46.521Z,27.45
2018-11-28T13:39:50.767Z,26.68
2018-11-28T13:40:55.119Z,25.97
2018-11-28T13:41:59.380Z,24.95
2018-11-28T13:43:03.689Z,24.45
2018-11-28T13:44:07.938Z,26.00
2018-11-28T13:45:16.563Z,24.90
2018-11-28T13:46:20.892Z,25.65
2018-11-28T13:47:25.217Z,27.45
2018-11-28T13:48:29.552Z,24.15
2018-11-28T13:49:33.895Z,24.95
2018-11-28T13:50:38.566Z,24.98
2018-11-28T13:51:42.952Z,27.00
2018-11-28T13:52:47.314Z,26.30
2018-11-28T13:53:51.728Z,26.25
2018-11-28T13:55:37.711Z,25.50
2018-11-28T13:57:06.139Z,25.52
2018-11-28T13:58:08.980Z,25.60
2018-11-28T13:59:13.319Z,24.47
2018-11-28T14:00:17.581Z,24.70
2018-11-28T14:01:21.807Z,24.92
2018-11-28T14:02:26.089Z,26.05
2018-11-28T14:03:30.665Z,25.50
2018-11-28T14:04:34.955Z,25.95
2018-11-28T14:05:39.259Z,26.87
2018-11-28T14:06:43.547Z,27.37
2018-11-28T14:07:47.921Z,24.18
2018-11-28T14:08:52.379Z,25.72
2018-11-28T14:09:56.640Z,26.33
2018-11-28T14:11:00.942Z,26.35
2018-11-28T14:12:05.199Z,25.92
2018-11-28T14:13:09.454Z,24.82
2018-11-28T14:14:14.018Z,25.32
2018-11-28T14:15:19.670Z,25.52
2018-11-28T14:16:23.920Z,25.55
2018-11-28T14:17:28.152Z,25.40
2018-11-28T14:18:32.441Z,25.62
2018-11-28T14:19:36.691Z,24.77
2018-11-28T14:20:41.544Z,25.55
2018-11-28T14:21:45.767Z,25.92
2018-11-28T14:22:50.400Z,25.95
2018-11-28T14:23:54.706Z,23.65
2018-11-28T14:24:58.994Z,25.75
2018-11-28T14:26:03.260Z,25.00
2018-11-28T14:27:07.501Z,25.95
2018-11-28T14:28:12.040Z,24.40
2018-11-28T14:29:16.387Z,26.12
2018-11-28T14:30:22.456Z,25.48
2018-11-28T14:31:27.030Z,25.57
2018-11-28T14:32:31.664Z,27.17
2018-11-28T14:33:35.989Z,25.62
2018-11-28T14:34:40.238Z,25.40
2018-11-28T14:35:44.861Z,26.07
2018-11-28T14:36:49.149Z,24.80
2018-11-28T14:37:53.765Z,25.32
2018-11-28T14:38:58.041Z,23.45
2018-11-28T14:40:02.626Z,22.98
2018-11-28T14:41:07.303Z,25.17
2018-11-28T14:42:11.586Z,23.62
2018-11-28T14:43:22.312Z,25.70
2018-11-28T14:44:26.653Z,24.87
2018-11-28T14:45:31.801Z,24.82
2018-11-28T14:46:36.111Z,24.30
2018-11-28T14:47:40.989Z,25.25
2018-11-28T14:48:45.767Z,25.43
2018-11-28T14:49:50.047Z,24.05
2018-11-28T14:50:54.638Z,23.67
2018-11-28T14:51:58.974Z,23.22
2018-11-28T14:53:03.999Z,24.65
2018-11-28T14:54:08.247Z,23.42
2018-11-28T14:55:14.876Z,24.18
2018-11-28T14:56:19.177Z,24.77
2018-11-28T14:57:23.453Z,24.27
2018-11-28T14:58:27.731Z,24.67
2018-11-28T14:59:32.065Z,24.40
2018-11-28T15:00:36.349Z,24.63
2018-11-28T15:01:40.640Z,24.37
2018-11-28T15:02:45.856Z,25.25
2018-11-28T15:03:50.116Z,24.23
2018-11-28T15:04:54.390Z,26.20
2018-11-28T15:06:31.375Z,25.35
2018-11-28T15:07:36.431Z,23.98
2018-11-28T15:08:40.011Z,25.43
2018-11-28T15:09:49.644Z,23.83
2018-11-28T15:11:05.409Z,24.37
2018-11-28T15:12:11.945Z,23.02
2018-11-28T15:13:16.257Z,23.40
2018-11-28T15:14:20.857Z,23.45
2018-11-28T15:15:25.103Z,25.23
2018-11-28T15:16:29.766Z,24.65
2018-11-28T15:17:34.034Z,24.40
2018-11-28T15:18:38.640Z,24.10
2018-11-28T15:19:42.946Z,23.80
2018-11-28T15:20:47.274Z,25.23
2018-11-28T15:21:51.573Z,24.15
2018-11-28T15:22:55.852Z,23.40
2018-11-28T15:24:00.170Z,24.43
2018-11-28T15:25:06.858Z,24.12
2018-11-28T15:26:11.332Z,24.35
2018-11-28T15:27:15.569Z,24.75
2018-11-28T15:28:19.865Z,24.75
2018-11-28T15:29:24.137Z,24.57
2018-11-28T15:30:28.750Z,26.60
2018-11-28T15:31:32.981Z,24.55
2018-11-28T15:32:37.287Z,24.72
2018-11-28T15:33:41.601Z,24.20
2018-11-28T15:34:45.843Z,25.08
2018-11-28T15:35:50.123Z,24.47
2018-11-28T15:36:54.367Z,24.07
2018-11-28T15:37:58.605Z,23.60
2018-11-28T15:39:03.079Z,25.37
2018-11-28T15:40:08.563Z,24.12
2018-11-28T15:41:12.828Z,24.35
2018-11-28T15:42:17.088Z,27.85
2018-11-28T15:43:21.387Z,28.27
2018-11-28T15:44:25.654Z,27.25
2018-11-28T15:45:29.935Z,25.57
2018-11-28T15:46:34.341Z,24.05
2018-11-28T15:47:38.707Z,24.25
2018-11-28T15:48:42.959Z,26.15
2018-11-28T15:49:47.214Z,23.50
2018-11-28T15:50:51.475Z,24.45
2018-11-28T15:51:55.770Z,25.35
2018-11-28T15:53:00.127Z,24.65
2018-11-28T15:54:05.309Z,24.55
2018-11-28T15:55:11.406Z,24.15
2018-11-28T15:56:16.038Z,24.07
2018-11-28T15:57:20.355Z,23.95
2018-11-28T15:58:24.607Z,25.12
2018-11-28T15:59:28.923Z,24.60
2018-11-28T16:00:33.560Z,24.65
2018-11-28T16:01:37.901Z,23.50
2018-11-28T16:02:42.871Z,25.60
2018-11-28T16:03:47.549Z,24.75
2018-11-28T16:04:51.823Z,23.05
2018-11-28T16:05:56.215Z,23.20
2018-11-28T16:07:00.939Z,23.77
2018-11-28T16:08:05.579Z,24.75
2018-11-28T16:09:15.343Z,24.82
2018-11-28T16:10:25.465Z,24.77
2018-11-28T16:11:29.782Z,25.40
2018-11-28T16:12:34.077Z,25.00
2018-11-28T16:13:38.747Z,25.43
2018-11-28T16:14:43.359Z,25.08
2018-11-28T16:15:54.026Z,27.20
2018-11-28T16:16:58.648Z,24.25
2018-11-28T16:18:02.929Z,27.05
2018-11-28T16:19:07.216Z,26.15
2018-11-28T16:20:11.843Z,27.48
2018-11-28T16:21:16.500Z,26.90
2018-11-28T16:22:21.510Z,25.68
2018-11-28T16:23:25.831Z,26.42
2018-11-28T16:24:30.134Z,25.32
2018-11-28T16:25:34.457Z,23.50
2018-11-28T16:26:38.754Z,25.20
2018-11-28T16:27:43.047Z,24.92
2018-11-28T16:28:47.321Z,25.65
2018-11-28T16:29:51.590Z,26.15
2018-11-28T16:30:56.237Z,25.20
2018-11-28T16:32:00.511Z,24.25
2018-11-28T16:33:04.855Z,25.70
2018-11-28T16:34:09.085Z,27.20
2018-11-28T16:35:14.767Z,24.95
2018-11-28T16:36:19.007Z,25.15
2018-11-28T16:37:23.229Z,25.82
2018-11-28T16:38:27.851Z,25.70
2018-11-28T16:39:32.149Z,25.75
2018-11-28T16:40:36.545Z,24.40
2018-11-28T16:41:40.819Z,24.27
2018-11-28T16:42:45.116Z,26.57
2018-11-28T16:43:49.441Z,24.70
2018-11-28T16:44:53.687Z,24.65
2018-11-28T16:45:57.984Z,24.63
2018-11-28T16:47:02.258Z,24.20
2018-11-28T16:48:06.574Z,23.12
2018-11-28T16:49:10.851Z,25.60
2018-11-28T16:50:16.144Z,24.92
2018-11-28T16:51:20.396Z,25.27
2018-11-28T16:52:24.668Z,24.65
2018-11-28T16:53:28.976Z,24.65
2018-11-28T16:54:33.239Z,24.65
2018-11-28T16:55:37.490Z,26.55
2018-11-28T16:56:41.754Z,25.97
2018-11-28T16:57:51.494Z,22.80
2018-11-28T16:58:55.824Z,24.30
2018-11-28T17:00:00.115Z,23.90
2018-11-28T17:01:04.818Z,23.85
2018-11-28T17:02:09.119Z,23.57
2018-11-28T17:03:13.423Z,23.47
2018-11-28T17:04:17.706Z,23.05
2018-11-28T17:05:22.630Z,24.67
2018-11-28T17:06:26.871Z,23.73
2018-11-28T17:07:31.101Z,25.08
2018-11-28T17:08:35.743Z,24.50
2018-11-28T17:09:40.028Z,23.38
2018-11-28T17:10:44.327Z,23.65
2018-11-28T17:11:48.588Z,23.42
2018-11-28T17:12:53.264Z,24.43
2018-11-28T17:13:57.553Z,23.70
2018-11-28T17:15:01.799Z,22.87
2018-11-28T17:16:06.108Z,22.40
2018-11-28T17:17:10.359Z,22.87
2018-11-28T17:18:14.714Z,23.55
2018-11-28T17:19:19.499Z,22.93
2018-11-28T17:20:25.965Z,22.93
2018-11-28T17:21:30.632Z,21.97
2018-11-28T17:22:34.576Z,24.32
2018-11-28T17:23:38.855Z,23.70
2018-11-28T17:24:43.095Z,24.25
2018-11-28T17:25:47.462Z,23.27
2018-11-28T17:26:52.419Z,23.12
2018-11-28T17:27:56.727Z,22.48
2018-11-28T17:29:01.050Z,23.27
2018-11-28T17:30:07.445Z,24.00
2018-11-28T17:31:11.714Z,23.92
2018-11-28T17:32:16.003Z,23.05
2018-11-28T17:33:20.305Z,21.82
2018-11-28T17:34:24.566Z,21.52
2018-11-28T17:35:28.831Z,22.27
2018-11-28T17:36:33.135Z,23.02
2018-11-28T17:37:37.604Z,23.12
2018-11-28T17:38:41.887Z,23.35
2018-11-28T17:39:46.599Z,21.60
2018-11-28T17:40:50.838Z,22.65
2018-11-28T17:41:55.151Z,23.38
2018-11-28T17:43:00.053Z,22.00
2018-11-28T17:44:04.338Z,23.75
2018-11-28T17:45:11.800Z,21.87
2018-11-28T17:46:16.091Z,23.70
2018-11-28T17:47:20.706Z,24.47
2018-11-28T17:48:24.970Z,22.70
2018-11-28T17:49:29.216Z,23.10
2018-11-28T17:50:33.500Z,23.35
2018-11-28T17:51:37.746Z,24.77
2018-11-28T17:52:46.748Z,23.70
2018-11-28T17:53:50.993Z,23.47
2018-11-28T17:54:55.576Z,23.38
2018-11-28T17:56:00.327Z,22.87
2018-11-28T17:57:04.612Z,22.87
2018-11-28T17:58:08.916Z,22.50
2018-11-28T17:59:13.173Z,23.18
2018-11-28T18:00:19.143Z,23.47
2018-11-28T18:01:23.406Z,23.60
2018-11-28T18:02:27.716Z,23.47
2018-11-28T18:03:32.003Z,24.05
2018-11-28T18:04:36.293Z,23.65
2018-11-28T18:05:40.643Z,24.35
2018-11-28T18:06:44.932Z,24.12
2018-11-28T18:07:55.735Z,23.75
2018-11-28T18:09:00.018Z,24.60
2018-11-28T18:10:07.043Z,25.68
2018-11-28T18:11:14.697Z,25.65
2018-11-28T18:12:19.098Z,22.70
2018-11-28T18:13:23.377Z,25.40
2018-11-28T18:14:27.637Z,25.77
2018-11-28T18:15:32.610Z,25.00
2018-11-28T18:16:36.906Z,24.00
2018-11-28T18:17:41.180Z,23.95
2018-11-28T18:18:45.531Z,24.95
2018-11-28T18:19:49.804Z,24.05
2018-11-28T18:20:54.085Z,25.08
2018-11-28T18:21:58.493Z,25.00
2018-11-28T18:23:02.765Z,24.60
2018-11-28T18:24:07.059Z,22.93
2018-11-28T18:25:11.388Z,25.27
2018-11-28T18:26:16.067Z,24.90
2018-11-28T18:27:20.350Z,23.70
2018-11-28T18:28:24.603Z,24.82
2018-11-28T18:29:28.967Z,24.47
2018-11-28T18:30:33.271Z,24.90
2018-11-28T18:31:37.545Z,24.57
2018-11-28T18:32:41.868Z,26.02
2018-11-28T18:33:46.178Z,25.02
2018-11-28T18:34:50.566Z,26.50
2018-11-28T18:35:54.851Z,26.07
2018-11-28T18:36:59.516Z,25.57
2018-11-28T18:38:10.303Z,25.12
2018-11-28T18:39:14.634Z,24.37
2018-11-28T18:40:18.948Z,25.10
2018-11-28T18:41:23.235Z,24.95
2018-11-28T18:42:27.486Z,24.60
2018-11-28T18:43:32.028Z,25.32
2018-11-28T18:44:36.279Z,26.37
2018-11-28T18:45:46.309Z,23.90
2018-11-28T18:46:50.610Z,23.85
2018-11-28T18:47:55.325Z,25.70
2018-11-28T18:48:59.607Z,25.02
2018-11-28T18:50:04.597Z,24.98
2018-11-28T18:51:09.288Z,24.77
2018-11-28T18:52:13.570Z,24.02
2018-11-28T18:53:17.853Z,24.23
2018-11-28T18:54:22.163Z,24.23
2018-11-28T18:55:26.455Z,25.52
2018-11-28T18:56:30.914Z,24.15
2018-11-28T18:57:35.192Z,28.95
2018-11-28T18:58:39.440Z,24.63
2018-11-28T18:59:43.739Z,25.97
2018-11-28T19:00:48.059Z,24.00
2018-11-28T19:01:53.151Z,24.87
2018-11-28T19:02:57.466Z,24.45
2018-11-28T19:04:01.816Z,23.90
2018-11-28T19:05:06.882Z,24.50
2018-11-28T19:06:11.147Z,25.95
2018-11-28T19:07:15.422Z,27.05
2018-11-28T19:08:19.735Z,26.73
2018-11-28T19:09:29.353Z,25.45
2018-11-28T19:10:34.019Z,27.25
2018-11-28T19:11:38.261Z,26.55
2018-11-28T19:12:42.947Z,29.07
2018-11-28T19:13:47.202Z,26.80
2018-11-28T19:14:51.480Z,32.08
2018-11-28T19:15:55.750Z,28.40
2018-11-28T19:17:00.034Z,28.60
2018-11-28T19:18:04.421Z,29.27
2018-11-28T19:19:08.677Z,27.62
2018-11-28T19:20:16.935Z,28.67
2018-11-28T19:21:21.588Z,28.87
2018-11-28T19:22:25.819Z,28.52
2018-11-28T19:23:30.129Z,29.20
2018-11-28T19:24:34.416Z,29.75
2018-11-28T19:25:38.679Z,29.18
2018-11-28T19:26:42.955Z,28.83
2018-11-28T19:27:47.626Z,29.25
2018-11-28T19:28:52.033Z,28.70
2018-11-28T19:29:56.323Z,30.25
2018-11-28T19:31:00.581Z,30.17
2018-11-28T19:32:04.962Z,30.23
2018-11-28T19:33:11.204Z,29.50
2018-11-28T19:34:18.234Z,30.43
2018-11-28T19:35:19.926Z,30.88
2018-11-28T19:36:24.195Z,29.35
2018-11-28T19:37:28.435Z,28.23
2018-11-28T19:38:32.693Z,29.07
2018-11-28T19:39:36.987Z,29.55
2018-11-28T19:40:44.392Z,28.38
2018-11-28T19:41:48.653Z,28.67
2018-11-28T19:42:52.922Z,27.30
2018-11-28T19:43:57.227Z,28.32
2018-11-28T19:45:01.494Z,28.38
2018-11-28T19:46:07.112Z,28.02
2018-11-28T19:47:11.963Z,27.65
2018-11-28T19:48:15.797Z,28.70
2018-11-28T19:49:20.018Z,28.62
2018-11-28T19:50:29.754Z,30.02
2018-11-28T19:51:34.035Z,27.62
2018-11-28T19:52:44.958Z,28.25
2018-11-28T19:53:49.267Z,26.20
2018-11-28T19:54:53.618Z,27.22
2018-11-28T19:55:57.868Z,27.77
2018-11-28T19:57:02.152Z,29.07
2018-11-28T19:58:07.787Z,28.98
2018-11-28T19:59:12.694Z,26.77
2018-11-28T20:00:18.034Z,28.47
2018-11-28T20:01:22.623Z,27.45
2018-11-28T20:02:26.870Z,27.62
2018-11-28T20:03:31.111Z,27.55
2018-11-28T20:04:35.411Z,29.02
2018-11-28T20:05:39.723Z,28.45
2018-11-28T20:06:44.003Z,28.87
2018-11-28T20:07:49.348Z,30.43
2018-11-28T20:08:53.704Z,28.42
2018-11-28T20:09:58.283Z,30.65
2018-11-28T20:11:02.587Z,30.72
2018-11-28T20:12:07.015Z,30.95
2018-11-28T20:13:11.794Z,29.15
2018-11-28T20:14:16.077Z,29.50
2018-11-28T20:15:22.628Z,30.85
2018-11-28T20:16:27.248Z,30.75
2018-11-28T20:17:31.505Z,30.70
2018-11-28T20:18:35.818Z,32.45
2018-11-28T20:19:40.071Z,32.80
2018-11-28T20:20:44.328Z,32.70
2018-11-28T20:21:48.616Z,35.60
2018-11-28T20:22:52.911Z,34.08
2018-11-28T20:23:57.195Z,34.35
2018-11-28T20:25:01.451Z,34.03
2018-11-28T20:26:06.104Z,33.30
2018-11-28T20:27:10.392Z,36.60
2018-11-28T20:28:14.713Z,36.90
2018-11-28T20:29:18.976Z,37.33
2018-11-28T20:30:43.506Z,35.38
2018-11-28T20:31:47.849Z,38.40
2018-11-28T20:32:52.207Z,41.95
2018-11-28T20:33:56.445Z,43.08
2018-11-28T20:35:03.011Z,41.33
2018-11-28T20:36:05.174Z,43.08
2018-11-28T20:37:09.455Z,41.68
2018-11-28T20:38:19.975Z,42.75
2018-11-28T20:39:24.269Z,42.58
2018-11-28T20:40:28.596Z,42.90
2018-11-28T20:41:32.878Z,39.88
2018-11-28T20:42:37.154Z,45.30
2018-11-28T20:43:41.469Z,42.40
2018-11-28T20:44:45.730Z,42.65
2018-11-28T20:45:50.361Z,44.25
2018-11-28T20:46:54.662Z,43.50
2018-11-28T20:47:58.917Z,43.78
2018-11-28T20:49:03.204Z,42.48
2018-11-28T20:50:10.216Z,43.02
2018-11-28T20:51:14.484Z,43.63
2018-11-28T20:52:18.772Z,45.28
2018-11-28T20:53:23.237Z,43.68
2018-11-28T20:54:27.501Z,40.00
2018-11-28T20:55:32.194Z,43.60
2018-11-28T20:56:36.542Z,44.88
2018-11-28T20:57:40.847Z,43.60
2018-11-28T20:58:45.332Z,44.65
2018-11-28T20:59:49.355Z,43.13
2018-11-28T21:00:53.697Z,43.10
2018-11-28T21:01:57.945Z,42.62
2018-11-28T21:03:02.211Z,42.33
2018-11-28T21:04:07.034Z,44.38
2018-11-28T21:05:11.440Z,43.73
2018-11-28T21:06:15.722Z,44.38
2018-11-28T21:07:20.011Z,42.50
2018-11-28T21:08:24.303Z,44.50
2018-11-28T21:09:28.556Z,42.45
2018-11-28T21:10:35.008Z,44.35
2018-11-28T21:11:39.313Z,44.58
2018-11-28T21:12:43.640Z,43.33
2018-11-28T21:13:47.894Z,44.65
2018-11-28T21:14:52.146Z,46.37
2018-11-28T21:15:56.766Z,43.42
2018-11-28T21:17:01.026Z,44.18
2018-11-28T21:18:05.828Z,44.60
2018-11-28T21:19:10.076Z,45.78
2018-11-28T21:20:15.628Z,45.95
2018-11-28T21:22:30.353Z,45.25
2018-11-28T21:23:35.307Z,47.85
2018-11-28T21:24:39.555Z,44.55
2018-11-28T21:25:43.826Z,44.77
2018-11-28T21:26:48.107Z,43.65
2018-11-28T21:27:52.442Z,46.40
2018-11-28T21:28:56.694Z,46.15
2018-11-28T21:30:00.968Z,45.43
2018-11-28T21:31:05.387Z,45.12
2018-11-28T21:32:09.749Z,47.13
2018-11-28T21:33:14.831Z,46.45
2018-11-28T21:34:19.142Z,46.60
2018-11-28T21:35:38.565Z,43.23
2018-11-28T21:36:44.502Z,43.48
2018-11-28T21:37:53.249Z,44.85
2018-11-28T21:38:57.544Z,43.85
2018-11-28T21:40:01.795Z,44.48
2018-11-28T21:41:06.129Z,43.95
2018-11-28T21:42:12.081Z,43.25
2018-11-28T21:43:16.840Z,45.50
2018-11-28T21:44:23.014Z,44.08
2018-11-28T21:45:26.592Z,45.25
2018-11-28T21:46:32.387Z,46.23
2018-11-28T21:47:36.811Z,43.90
2018-11-28T21:48:41.981Z,43.95
2018-11-28T21:49:46.316Z,45.28
2018-11-28T21:50:50.622Z,45.28
2018-11-28T21:51:56.700Z,45.38
2018-11-28T21:53:01.032Z,45.80
2018-11-28T21:54:05.671Z,42.93
2018-11-28T21:55:12.886Z,46.28
2018-11-28T21:56:18.221Z,45.33
2018-11-28T21:57:23.663Z,44.30
2018-11-28T21:58:27.940Z,45.70
2018-11-28T21:59:32.816Z,46.45
2018-11-28T22:00:37.508Z,46.15
2018-11-28T22:01:41.748Z,45.35
2018-11-28T22:02:46.347Z,42.83
2018-11-28T22:03:51.217Z,46.02
2018-11-28T22:04:57.099Z,45.80
2018-11-28T22:06:01.370Z,44.90
2018-11-28T22:07:06.536Z,43.55
2018-11-28T22:08:10.827Z,41.98
2018-11-28T22:09:16.645Z,45.80
2018-11-28T22:10:23.854Z,42.45
2018-11-28T22:11:35.229Z,42.08
2018-11-28T22:12:39.549Z,44.58
2018-11-28T22:13:43.827Z,43.13
2018-11-28T22:14:48.323Z,42.53
2018-11-28T22:15:52.616Z,41.00
2018-11-28T22:16:56.903Z,41.95
2018-11-28T22:18:04.518Z,44.27
2018-11-28T22:19:08.870Z,42.23
2018-11-28T22:20:14.029Z,43.38
2018-11-28T22:21:18.343Z,43.78
2018-11-28T22:22:22.695Z,44.40
2018-11-28T22:23:26.934Z,42.93
2018-11-28T22:24:31.275Z,43.05
2018-11-28T22:25:35.548Z,45.17
2018-11-28T22:26:39.788Z,44.20
2018-11-28T22:27:45.446Z,44.13
2018-11-28T22:28:49.711Z,43.98
2018-11-28T22:29:53.966Z,40.23
2018-11-28T22:30:58.234Z,42.98
2018-11-28T22:32:02.492Z,43.58
2018-11-28T22:33:07.374Z,43.08
2018-11-28T22:34:11.641Z,44.55
2018-11-28T22:35:16.246Z,44.65
2018-11-28T22:36:20.492Z,43.58
2018-11-28T22:37:24.800Z,42.33
2018-11-28T22:38:29.097Z,43.38
2018-11-28T22:39:33.366Z,42.27
2018-11-28T22:40:37.676Z,41.40
2018-11-28T22:41:41.936Z,41.50
2018-11-28T22:42:46.228Z,44.42
2018-11-28T22:43:50.521Z,43.08
2018-11-28T22:44:54.912Z,42.15
2018-11-28T22:45:59.229Z,43.08
2018-11-28T22:47:03.588Z,41.85
2018-11-28T22:48:08.215Z,41.73
2018-11-28T22:49:12.515Z,49.13
2018-11-28T22:50:16.845Z,49.10
2018-11-28T22:51:21.078Z,44.08
2018-11-28T22:52:25.362Z,39.30
2018-11-28T22:53:29.598Z,39.45
2018-11-28T22:54:33.867Z,39.35
2018-11-28T22:55:38.107Z,39.42
2018-11-28T22:56:42.418Z,37.85
2018-11-28T22:57:46.735Z,36.42
2018-11-28T22:58:50.994Z,33.40
2018-11-28T22:59:55.244Z,34.95
2018-11-28T23:01:04.930Z,35.17
2018-11-28T23:03:12.279Z,32.93
2018-11-28T23:04:16.532Z,32.48
2018-11-28T23:05:23.038Z,33.15
2018-11-28T23:06:27.348Z,34.43
2018-11-28T23:07:31.600Z,36.48
2018-11-28T23:08:35.874Z,34.73
2018-11-28T23:09:40.107Z,35.88
2018-11-28T23:10:44.421Z,35.75
2018-11-28T23:11:48.749Z,35.88
2018-11-28T23:12:53.026Z,36.35
2018-11-28T23:13:57.276Z,39.95
2018-11-28T23:15:01.534Z,51.53
2018-11-28T23:16:06.273Z,43.73
2018-11-28T23:17:10.523Z,40.20
2018-11-28T23:18:15.166Z,39.20
2018-11-28T23:19:19.410Z,35.52
2018-11-28T23:20:24.049Z,37.75
2018-11-28T23:21:28.290Z,37.98
2018-11-28T23:22:32.569Z,36.10
2018-11-28T23:23:36.909Z,34.88
2018-11-28T23:24:41.232Z,36.60
2018-11-28T23:25:45.843Z,35.65
2018-11-28T23:26:50.110Z,34.43
2018-11-28T23:27:54.431Z,36.75
2018-11-28T23:28:58.680Z,34.65
2018-11-28T23:30:02.931Z,33.45
2018-11-28T23:31:07.264Z,33.40
2018-11-28T23:32:11.511Z,32.83
2018-11-28T23:33:16.200Z,34.15
2018-11-28T23:34:20.027Z,35.48
2018-11-28T23:35:25.130Z,34.70
2018-11-28T23:36:29.463Z,33.85
2018-11-28T23:37:33.760Z,34.55
2018-11-28T23:38:38.108Z,35.43
2018-11-28T23:39:42.459Z,34.13
2018-11-28T23:40:46.770Z,35.08
2018-11-28T23:41:51.077Z,35.28
2018-11-28T23:42:55.951Z,37.75
2018-11-28T23:44:00.361Z,36.63
2018-11-28T23:45:05.406Z,35.30
2018-11-28T23:46:09.787Z,35.80
2018-11-28T23:47:14.142Z,35.83
2018-11-28T23:48:18.439Z,36.05
2018-11-28T23:49:23.320Z,34.80
2018-11-28T23:50:27.655Z,34.27
2018-11-28T23:51:31.984Z,35.20
2018-11-28T23:52:36.339Z,32.00
2018-11-28T23:53:40.658Z,34.33
2018-11-28T23:54:44.957Z,34.53
2018-11-28T23:55:49.263Z,32.95
2018-11-28T23:56:53.633Z,34.73
2018-11-28T23:57:57.971Z,34.40
2018-11-28T23:59:02.317Z,34.53
